sensor_id;sensor_type;location;lat;lon;timestamp;P1;durP1;ratioP1;P2;durP2;ratioP2
7166;SDS011;3625;51.762;14.320;2022-08-19T00:02:11;11.38;;;10.30;;
7166;SDS011;3625;51.762;14.320;2022-08-19T00:04:39;11.10;;;10.02;;
7166;SDS011;3625;51.762;14.320;2022-08-19T00:07:08;12.45;;;11.27;;
7166;SDS011;3625;51.762;14.320;2022-08-19T00:09:37;11.07;;;10.15;;
7166;SDS011;3625;51.762;14.320;2022-08-19T00:12:06;12.98;;;11.18;;
7166;SDS011;3625;51.762;14.320;2022-08-19T00:14:35;12.43;;;10.90;;
7166;SDS011;3625;51.762;14.320;2022-08-19T00:17:05;11.85;;;10.80;;
7166;SDS011;3625;51.762;14.320;2022-08-19T00:19:37;14.75;;;11.50;;
7166;SDS011;3625;51.762;14.320;2022-08-19T00:22:07;12.65;;;11.43;;
7166;SDS011;3625;51.762;14.320;2022-08-19T00:24:36;12.23;;;11.13;;
7166;SDS011;3625;51.762;14.320;2022-08-19T00:27:16;13.82;;;12.50;;
7166;SDS011;3625;51.762;14.320;2022-08-19T00:29:52;11.63;;;10.57;;
7166;SDS011;3625;51.762;14.320;2022-08-19T00:32:21;11.40;;;10.30;;
7166;SDS011;3625;51.762;14.320;2022-08-19T00:34:53;14.27;;;12.75;;
7166;SDS011;3625;51.762;14.320;2022-08-19T00:37:22;12.43;;;11.25;;
7166;SDS011;3625;51.762;14.320;2022-08-19T00:39:53;13.02;;;11.80;;
7166;SDS011;3625;51.762;14.320;2022-08-19T00:42:22;11.68;;;10.63;;
7166;SDS011;3625;51.762;14.320;2022-08-19T00:44:54;12.63;;;11.50;;
7166;SDS011;3625;51.762;14.320;2022-08-19T00:47:23;14.13;;;12.80;;
7166;SDS011;3625;51.762;14.320;2022-08-19T00:49:56;13.55;;;12.13;;
7166;SDS011;3625;51.762;14.320;2022-08-19T00:52:26;14.75;;;13.13;;
7166;SDS011;3625;51.762;14.320;2022-08-19T00:55:00;12.77;;;11.68;;
7166;SDS011;3625;51.762;14.320;2022-08-19T00:57:32;13.10;;;12.00;;
7166;SDS011;3625;51.762;14.320;2022-08-19T01:00:09;16.77;;;13.15;;
7166;SDS011;3625;51.762;14.320;2022-08-19T01:02:42;13.73;;;12.63;;
7166;SDS011;3625;51.762;14.320;2022-08-19T01:05:14;13.88;;;12.57;;
7166;SDS011;3625;51.762;14.320;2022-08-19T01:07:48;15.25;;;13.82;;
7166;SDS011;3625;51.762;14.320;2022-08-19T01:10:19;14.40;;;13.00;;
7166;SDS011;3625;51.762;14.320;2022-08-19T01:12:52;14.55;;;13.20;;
7166;SDS011;3625;51.762;14.320;2022-08-19T01:15:25;15.10;;;13.70;;
7166;SDS011;3625;51.762;14.320;2022-08-19T01:17:57;13.70;;;12.45;;
7166;SDS011;3625;51.762;14.320;2022-08-19T01:20:39;14.23;;;12.82;;
7166;SDS011;3625;51.762;14.320;2022-08-19T01:23:11;13.90;;;12.68;;
7166;SDS011;3625;51.762;14.320;2022-08-19T01:25:42;14.55;;;13.02;;
7166;SDS011;3625;51.762;14.320;2022-08-19T01:28:17;13.68;;;12.45;;
7166;SDS011;3625;51.762;14.320;2022-08-19T01:31:05;13.75;;;12.45;;
7166;SDS011;3625;51.762;14.320;2022-08-19T01:33:55;14.00;;;12.60;;
7166;SDS011;3625;51.762;14.320;2022-08-19T01:36:27;12.55;;;11.23;;
7166;SDS011;3625;51.762;14.320;2022-08-19T01:39:02;15.38;;;13.90;;
7166;SDS011;3625;51.762;14.320;2022-08-19T01:41:40;13.15;;;11.95;;
7166;SDS011;3625;51.762;14.320;2022-08-19T01:44:09;12.88;;;11.75;;
7166;SDS011;3625;51.762;14.320;2022-08-19T01:46:45;15.10;;;13.70;;
7166;SDS011;3625;51.762;14.320;2022-08-19T01:49:16;11.48;;;10.27;;
7166;SDS011;3625;51.762;14.320;2022-08-19T01:51:49;13.02;;;11.82;;
7166;SDS011;3625;51.762;14.320;2022-08-19T01:54:20;14.10;;;12.50;;
7166;SDS011;3625;51.762;14.320;2022-08-19T01:56:54;15.00;;;13.40;;
7166;SDS011;3625;51.762;14.320;2022-08-19T01:59:27;14.32;;;13.00;;
7166;SDS011;3625;51.762;14.320;2022-08-19T02:01:57;13.80;;;12.57;;
7166;SDS011;3625;51.762;14.320;2022-08-19T02:04:26;15.07;;;13.30;;
7166;SDS011;3625;51.762;14.320;2022-08-19T02:06:56;13.63;;;12.43;;
7166;SDS011;3625;51.762;14.320;2022-08-19T02:09:27;13.25;;;11.95;;
7166;SDS011;3625;51.762;14.320;2022-08-19T02:11:56;15.27;;;13.75;;
7166;SDS011;3625;51.762;14.320;2022-08-19T02:14:24;12.88;;;11.77;;
7166;SDS011;3625;51.762;14.320;2022-08-19T02:16:53;14.55;;;13.23;;
7166;SDS011;3625;51.762;14.320;2022-08-19T02:19:22;14.73;;;13.27;;
7166;SDS011;3625;51.762;14.320;2022-08-19T02:21:51;15.35;;;13.95;;
7166;SDS011;3625;51.762;14.320;2022-08-19T02:24:19;14.75;;;13.27;;
7166;SDS011;3625;51.762;14.320;2022-08-19T02:26:50;15.52;;;14.13;;
7166;SDS011;3625;51.762;14.320;2022-08-19T02:29:19;14.75;;;13.35;;
7166;SDS011;3625;51.762;14.320;2022-08-19T02:31:48;14.55;;;13.25;;
7166;SDS011;3625;51.762;14.320;2022-08-19T02:34:18;15.48;;;13.88;;
7166;SDS011;3625;51.762;14.320;2022-08-19T02:36:46;14.75;;;13.32;;
7166;SDS011;3625;51.762;14.320;2022-08-19T02:39:17;15.65;;;14.25;;
7166;SDS011;3625;51.762;14.320;2022-08-19T02:41:45;15.65;;;14.15;;
7166;SDS011;3625;51.762;14.320;2022-08-19T02:44:16;14.15;;;12.85;;
7166;SDS011;3625;51.762;14.320;2022-08-19T02:46:57;15.07;;;13.73;;
7166;SDS011;3625;51.762;14.320;2022-08-19T02:49:26;16.17;;;14.70;;
7166;SDS011;3625;51.762;14.320;2022-08-19T02:52:00;14.88;;;13.48;;
7166;SDS011;3625;51.762;14.320;2022-08-19T02:54:29;15.88;;;14.20;;
7166;SDS011;3625;51.762;14.320;2022-08-19T02:56:58;16.55;;;14.80;;
7166;SDS011;3625;51.762;14.320;2022-08-19T02:59:30;16.02;;;14.43;;
7166;SDS011;3625;51.762;14.320;2022-08-19T03:01:59;15.00;;;13.75;;
7166;SDS011;3625;51.762;14.320;2022-08-19T03:04:29;15.88;;;14.40;;
7166;SDS011;3625;51.762;14.320;2022-08-19T03:06:57;15.50;;;14.02;;
7166;SDS011;3625;51.762;14.320;2022-08-19T03:09:36;15.75;;;14.23;;
7166;SDS011;3625;51.762;14.320;2022-08-19T03:12:05;15.13;;;13.82;;
7166;SDS011;3625;51.762;14.320;2022-08-19T03:14:36;15.07;;;13.75;;
7166;SDS011;3625;51.762;14.320;2022-08-19T03:17:05;15.13;;;13.73;;
7166;SDS011;3625;51.762;14.320;2022-08-19T03:19:34;16.85;;;15.23;;
7166;SDS011;3625;51.762;14.320;2022-08-19T03:22:04;15.38;;;13.88;;
7166;SDS011;3625;51.762;14.320;2022-08-19T03:24:34;16.30;;;14.70;;
7166;SDS011;3625;51.762;14.320;2022-08-19T03:27:03;15.15;;;13.75;;
7166;SDS011;3625;51.762;14.320;2022-08-19T03:29:32;15.10;;;13.80;;
7166;SDS011;3625;51.762;14.320;2022-08-19T03:32:08;16.40;;;14.88;;
7166;SDS011;3625;51.762;14.320;2022-08-19T03:34:58;17.02;;;15.32;;
7166;SDS011;3625;51.762;14.320;2022-08-19T03:37:28;15.13;;;13.82;;
7166;SDS011;3625;51.762;14.320;2022-08-19T03:39:57;16.83;;;15.23;;
7166;SDS011;3625;51.762;14.320;2022-08-19T03:42:26;15.23;;;13.85;;
7166;SDS011;3625;51.762;14.320;2022-08-19T03:45:16;15.30;;;13.90;;
7166;SDS011;3625;51.762;14.320;2022-08-19T03:47:46;16.30;;;14.77;;
7166;SDS011;3625;51.762;14.320;2022-08-19T03:50:14;15.85;;;14.40;;
7166;SDS011;3625;51.762;14.320;2022-08-19T03:52:47;15.57;;;14.18;;
7166;SDS011;3625;51.762;14.320;2022-08-19T03:55:18;15.82;;;13.90;;
7166;SDS011;3625;51.762;14.320;2022-08-19T03:58:22;15.35;;;13.90;;
7166;SDS011;3625;51.762;14.320;2022-08-19T04:00:58;15.02;;;13.65;;
7166;SDS011;3625;51.762;14.320;2022-08-19T04:03:35;15.32;;;13.93;;
7166;SDS011;3625;51.762;14.320;2022-08-19T04:06:16;15.00;;;13.73;;
7166;SDS011;3625;51.762;14.320;2022-08-19T04:08:48;16.20;;;14.60;;
7166;SDS011;3625;51.762;14.320;2022-08-19T04:11:21;14.32;;;12.88;;
7166;SDS011;3625;51.762;14.320;2022-08-19T04:14:10;16.83;;;15.32;;
7166;SDS011;3625;51.762;14.320;2022-08-19T04:16:43;15.32;;;13.82;;
7166;SDS011;3625;51.762;14.320;2022-08-19T04:19:13;16.23;;;14.63;;
7166;SDS011;3625;51.762;14.320;2022-08-19T04:21:43;16.98;;;14.90;;
7166;SDS011;3625;51.762;14.320;2022-08-19T04:24:15;16.50;;;14.88;;
7166;SDS011;3625;51.762;14.320;2022-08-19T04:26:45;14.93;;;13.63;;
7166;SDS011;3625;51.762;14.320;2022-08-19T04:29:15;14.68;;;13.48;;
7166;SDS011;3625;51.762;14.320;2022-08-19T04:31:53;14.73;;;13.43;;
7166;SDS011;3625;51.762;14.320;2022-08-19T04:34:26;17.02;;;15.43;;
7166;SDS011;3625;51.762;14.320;2022-08-19T04:36:57;16.17;;;14.77;;
7166;SDS011;3625;51.762;14.320;2022-08-19T04:39:27;15.48;;;14.07;;
7166;SDS011;3625;51.762;14.320;2022-08-19T04:42:12;16.95;;;15.43;;
7166;SDS011;3625;51.762;14.320;2022-08-19T04:44:58;14.23;;;12.82;;
7166;SDS011;3625;51.762;14.320;2022-08-19T04:47:32;15.55;;;14.15;;
7166;SDS011;3625;51.762;14.320;2022-08-19T04:50:20;14.98;;;13.68;;
7166;SDS011;3625;51.762;14.320;2022-08-19T04:52:50;15.95;;;14.50;;
7166;SDS011;3625;51.762;14.320;2022-08-19T04:55:20;15.80;;;14.40;;
7166;SDS011;3625;51.762;14.320;2022-08-19T04:57:49;15.98;;;14.32;;
7166;SDS011;3625;51.762;14.320;2022-08-19T05:00:18;16.10;;;14.68;;
7166;SDS011;3625;51.762;14.320;2022-08-19T05:02:48;14.60;;;13.23;;
7166;SDS011;3625;51.762;14.320;2022-08-19T05:05:17;15.32;;;14.02;;
7166;SDS011;3625;51.762;14.320;2022-08-19T05:07:46;14.18;;;12.77;;
7166;SDS011;3625;51.762;14.320;2022-08-19T05:10:15;14.73;;;13.32;;
7166;SDS011;3625;51.762;14.320;2022-08-19T05:12:44;13.70;;;12.48;;
7166;SDS011;3625;51.762;14.320;2022-08-19T05:15:13;15.27;;;13.85;;
7166;SDS011;3625;51.762;14.320;2022-08-19T05:17:42;14.90;;;13.45;;
7166;SDS011;3625;51.762;14.320;2022-08-19T05:20:32;14.95;;;13.55;;
7166;SDS011;3625;51.762;14.320;2022-08-19T05:23:18;15.50;;;13.95;;
7166;SDS011;3625;51.762;14.320;2022-08-19T05:25:48;15.27;;;13.93;;
7166;SDS011;3625;51.762;14.320;2022-08-19T05:28:18;14.25;;;12.95;;
7166;SDS011;3625;51.762;14.320;2022-08-19T05:30:48;15.48;;;14.00;;
7166;SDS011;3625;51.762;14.320;2022-08-19T05:33:17;15.43;;;14.00;;
7166;SDS011;3625;51.762;14.320;2022-08-19T05:35:48;14.52;;;13.13;;
7166;SDS011;3625;51.762;14.320;2022-08-19T05:38:17;14.18;;;12.98;;
7166;SDS011;3625;51.762;14.320;2022-08-19T05:40:46;15.20;;;13.70;;
7166;SDS011;3625;51.762;14.320;2022-08-19T05:43:16;14.65;;;13.27;;
7166;SDS011;3625;51.762;14.320;2022-08-19T05:45:44;15.57;;;14.18;;
7166;SDS011;3625;51.762;14.320;2022-08-19T05:48:13;14.07;;;12.88;;
7166;SDS011;3625;51.762;14.320;2022-08-19T05:50:48;14.77;;;13.38;;
7166;SDS011;3625;51.762;14.320;2022-08-19T05:53:17;15.93;;;14.45;;
7166;SDS011;3625;51.762;14.320;2022-08-19T05:55:46;16.35;;;14.63;;
7166;SDS011;3625;51.762;14.320;2022-08-19T05:58:15;16.08;;;13.45;;
7166;SDS011;3625;51.762;14.320;2022-08-19T06:00:48;16.60;;;14.88;;
7166;SDS011;3625;51.762;14.320;2022-08-19T06:03:17;15.90;;;14.55;;
7166;SDS011;3625;51.762;14.320;2022-08-19T06:05:48;16.45;;;14.85;;
7166;SDS011;3625;51.762;14.320;2022-08-19T06:08:18;14.50;;;13.10;;
7166;SDS011;3625;51.762;14.320;2022-08-19T06:13:48;17.15;;;15.30;;
7166;SDS011;3625;51.762;14.320;2022-08-19T06:16:25;16.40;;;14.82;;
7166;SDS011;3625;51.762;14.320;2022-08-19T06:18:55;17.30;;;15.73;;
7166;SDS011;3625;51.762;14.320;2022-08-19T06:21:28;15.23;;;13.63;;
7166;SDS011;3625;51.762;14.320;2022-08-19T06:23:58;15.23;;;13.93;;
7166;SDS011;3625;51.762;14.320;2022-08-19T06:26:27;16.23;;;14.80;;
7166;SDS011;3625;51.762;14.320;2022-08-19T06:28:56;14.75;;;13.43;;
7166;SDS011;3625;51.762;14.320;2022-08-19T06:31:25;14.10;;;12.73;;
7166;SDS011;3625;51.762;14.320;2022-08-19T06:33:57;16.63;;;14.70;;
7166;SDS011;3625;51.762;14.320;2022-08-19T06:36:31;15.73;;;14.27;;
7166;SDS011;3625;51.762;14.320;2022-08-19T06:39:03;16.35;;;14.75;;
7166;SDS011;3625;51.762;14.320;2022-08-19T06:41:35;13.25;;;12.07;;
7166;SDS011;3625;51.762;14.320;2022-08-19T06:44:16;15.82;;;14.43;;
7166;SDS011;3625;51.762;14.320;2022-08-19T06:46:47;15.65;;;14.10;;
7166;SDS011;3625;51.762;14.320;2022-08-19T06:49:20;16.23;;;14.90;;
7166;SDS011;3625;51.762;14.320;2022-08-19T06:51:51;15.02;;;13.65;;
7166;SDS011;3625;51.762;14.320;2022-08-19T06:54:19;14.40;;;12.88;;
7166;SDS011;3625;51.762;14.320;2022-08-19T06:56:56;15.10;;;13.70;;
7166;SDS011;3625;51.762;14.320;2022-08-19T06:59:28;14.52;;;13.02;;
7166;SDS011;3625;51.762;14.320;2022-08-19T07:02:00;14.90;;;13.50;;
7166;SDS011;3625;51.762;14.320;2022-08-19T07:04:34;14.20;;;12.95;;
7166;SDS011;3625;51.762;14.320;2022-08-19T07:07:10;14.40;;;13.10;;
7166;SDS011;3625;51.762;14.320;2022-08-19T07:09:51;14.07;;;12.77;;
7166;SDS011;3625;51.762;14.320;2022-08-19T07:12:25;13.05;;;11.85;;
7166;SDS011;3625;51.762;14.320;2022-08-19T07:14:56;14.80;;;13.50;;
7166;SDS011;3625;51.762;14.320;2022-08-19T07:17:26;13.90;;;12.65;;
7166;SDS011;3625;51.762;14.320;2022-08-19T07:20:00;14.98;;;13.68;;
7166;SDS011;3625;51.762;14.320;2022-08-19T07:22:36;14.13;;;12.75;;
7166;SDS011;3625;51.762;14.320;2022-08-19T07:25:06;16.40;;;14.88;;
7166;SDS011;3625;51.762;14.320;2022-08-19T07:27:37;13.93;;;12.73;;
7166;SDS011;3625;51.762;14.320;2022-08-19T07:30:11;14.13;;;12.85;;
7166;SDS011;3625;51.762;14.320;2022-08-19T07:32:42;15.40;;;13.48;;
7166;SDS011;3625;51.762;14.320;2022-08-19T07:35:11;16.20;;;14.65;;
7166;SDS011;3625;51.762;14.320;2022-08-19T07:37:41;14.27;;;12.90;;
7166;SDS011;3625;51.762;14.320;2022-08-19T07:40:11;14.73;;;13.35;;
7166;SDS011;3625;51.762;14.320;2022-08-19T07:42:40;15.23;;;13.85;;
7166;SDS011;3625;51.762;14.320;2022-08-19T07:45:09;14.27;;;13.07;;
7166;SDS011;3625;51.762;14.320;2022-08-19T07:47:39;17.20;;;15.60;;
7166;SDS011;3625;51.762;14.320;2022-08-19T07:50:16;16.55;;;15.05;;
7166;SDS011;3625;51.762;14.320;2022-08-19T07:52:48;17.42;;;15.93;;
7166;SDS011;3625;51.762;14.320;2022-08-19T07:55:20;17.38;;;15.65;;
7166;SDS011;3625;51.762;14.320;2022-08-19T07:58:08;15.75;;;14.35;;
7166;SDS011;3625;51.762;14.320;2022-08-19T08:00:38;15.52;;;14.05;;
7166;SDS011;3625;51.762;14.320;2022-08-19T08:03:08;16.88;;;15.20;;
7166;SDS011;3625;51.762;14.320;2022-08-19T08:05:37;18.00;;;16.02;;
7166;SDS011;3625;51.762;14.320;2022-08-19T08:08:25;16.90;;;15.30;;
7166;SDS011;3625;51.762;14.320;2022-08-19T08:11:14;18.92;;;17.13;;
7166;SDS011;3625;51.762;14.320;2022-08-19T08:13:46;16.52;;;15.05;;
7166;SDS011;3625;51.762;14.320;2022-08-19T08:16:27;18.65;;;16.95;;
7166;SDS011;3625;51.762;14.320;2022-08-19T08:18:59;18.40;;;16.58;;
7166;SDS011;3625;51.762;14.320;2022-08-19T08:21:32;18.10;;;16.42;;
7166;SDS011;3625;51.762;14.320;2022-08-19T08:24:03;20.38;;;18.48;;
7166;SDS011;3625;51.762;14.320;2022-08-19T08:26:32;18.58;;;16.88;;
7166;SDS011;3625;51.762;14.320;2022-08-19T08:29:03;15.82;;;14.57;;
7166;SDS011;3625;51.762;14.320;2022-08-19T08:31:38;21.92;;;19.83;;
7166;SDS011;3625;51.762;14.320;2022-08-19T08:34:09;20.98;;;18.75;;
7166;SDS011;3625;51.762;14.320;2022-08-19T08:36:41;22.67;;;20.30;;
7166;SDS011;3625;51.762;14.320;2022-08-19T08:39:15;18.90;;;17.02;;
7166;SDS011;3625;51.762;14.320;2022-08-19T08:41:54;21.25;;;19.25;;
7166;SDS011;3625;51.762;14.320;2022-08-19T08:44:46;22.88;;;19.55;;
7166;SDS011;3625;51.762;14.320;2022-08-19T08:47:26;19.77;;;17.83;;
7166;SDS011;3625;51.762;14.320;2022-08-19T08:50:09;17.17;;;15.57;;
7166;SDS011;3625;51.762;14.320;2022-08-19T08:52:46;17.98;;;16.35;;
7166;SDS011;3625;51.762;14.320;2022-08-19T08:55:23;15.52;;;14.20;;
7166;SDS011;3625;51.762;14.320;2022-08-19T08:58:03;13.35;;;12.15;;
7166;SDS011;3625;51.762;14.320;2022-08-19T09:00:42;15.27;;;13.88;;
7166;SDS011;3625;51.762;14.320;2022-08-19T09:03:16;16.45;;;14.95;;
7166;SDS011;3625;51.762;14.320;2022-08-19T09:05:50;13.82;;;12.55;;
7166;SDS011;3625;51.762;14.320;2022-08-19T09:08:32;16.58;;;15.02;;
7166;SDS011;3625;51.762;14.320;2022-08-19T09:11:18;18.60;;;16.80;;
7166;SDS011;3625;51.762;14.320;2022-08-19T09:14:11;18.63;;;16.73;;
7166;SDS011;3625;51.762;14.320;2022-08-19T09:17:16;17.35;;;15.60;;
7166;SDS011;3625;51.762;14.320;2022-08-19T09:19:55;17.30;;;15.73;;
7166;SDS011;3625;51.762;14.320;2022-08-19T09:22:31;17.38;;;15.55;;
7166;SDS011;3625;51.762;14.320;2022-08-19T09:25:00;15.32;;;13.90;;
7166;SDS011;3625;51.762;14.320;2022-08-19T09:27:31;17.40;;;15.77;;
7166;SDS011;3625;51.762;14.320;2022-08-19T09:30:10;16.70;;;15.13;;
7166;SDS011;3625;51.762;14.320;2022-08-19T09:32:43;17.02;;;15.35;;
7166;SDS011;3625;51.762;14.320;2022-08-19T09:35:18;15.88;;;14.35;;
7166;SDS011;3625;51.762;14.320;2022-08-19T09:37:49;17.00;;;15.50;;
7166;SDS011;3625;51.762;14.320;2022-08-19T09:40:25;18.27;;;16.38;;
7166;SDS011;3625;51.762;14.320;2022-08-19T09:42:57;16.67;;;15.02;;
7166;SDS011;3625;51.762;14.320;2022-08-19T09:45:39;17.23;;;15.48;;
7166;SDS011;3625;51.762;14.320;2022-08-19T09:48:07;16.42;;;15.00;;
7166;SDS011;3625;51.762;14.320;2022-08-19T09:50:44;15.23;;;13.93;;
7166;SDS011;3625;51.762;14.320;2022-08-19T09:53:18;16.45;;;14.95;;
7166;SDS011;3625;51.762;14.320;2022-08-19T09:55:51;16.00;;;14.70;;
7166;SDS011;3625;51.762;14.320;2022-08-19T09:58:23;15.45;;;14.15;;
7166;SDS011;3625;51.762;14.320;2022-08-19T10:00:54;15.75;;;14.15;;
7166;SDS011;3625;51.762;14.320;2022-08-19T10:03:23;14.70;;;13.20;;
7166;SDS011;3625;51.762;14.320;2022-08-19T10:05:56;16.13;;;14.63;;
7166;SDS011;3625;51.762;14.320;2022-08-19T10:08:27;15.25;;;13.98;;
7166;SDS011;3625;51.762;14.320;2022-08-19T10:11:01;14.98;;;13.70;;
7166;SDS011;3625;51.762;14.320;2022-08-19T10:13:53;14.95;;;13.65;;
7166;SDS011;3625;51.762;14.320;2022-08-19T10:16:22;16.05;;;14.63;;
7166;SDS011;3625;51.762;14.320;2022-08-19T10:18:56;16.08;;;14.63;;
7166;SDS011;3625;51.762;14.320;2022-08-19T10:21:29;13.95;;;12.75;;
7166;SDS011;3625;51.762;14.320;2022-08-19T10:24:01;15.75;;;14.13;;
7166;SDS011;3625;51.762;14.320;2022-08-19T10:26:36;15.60;;;14.30;;
7166;SDS011;3625;51.762;14.320;2022-08-19T10:29:09;15.68;;;14.23;;
7166;SDS011;3625;51.762;14.320;2022-08-19T10:31:58;15.18;;;13.90;;
7166;SDS011;3625;51.762;14.320;2022-08-19T10:34:28;16.80;;;15.15;;
7166;SDS011;3625;51.762;14.320;2022-08-19T10:36:58;16.63;;;15.13;;
7166;SDS011;3625;51.762;14.320;2022-08-19T10:39:28;17.70;;;15.90;;
7166;SDS011;3625;51.762;14.320;2022-08-19T10:42:09;17.30;;;15.73;;
7166;SDS011;3625;51.762;14.320;2022-08-19T10:44:41;17.67;;;16.17;;
7166;SDS011;3625;51.762;14.320;2022-08-19T10:47:10;17.40;;;15.85;;
7166;SDS011;3625;51.762;14.320;2022-08-19T10:49:50;18.10;;;16.55;;
7166;SDS011;3625;51.762;14.320;2022-08-19T10:52:38;18.40;;;16.77;;
7166;SDS011;3625;51.762;14.320;2022-08-19T10:55:16;18.42;;;16.73;;
7166;SDS011;3625;51.762;14.320;2022-08-19T10:58:09;19.00;;;17.00;;
7166;SDS011;3625;51.762;14.320;2022-08-19T11:00:41;20.20;;;18.38;;
7166;SDS011;3625;51.762;14.320;2022-08-19T11:03:10;17.30;;;15.60;;
7166;SDS011;3625;51.762;14.320;2022-08-19T11:05:39;20.23;;;18.42;;
7166;SDS011;3625;51.762;14.320;2022-08-19T11:08:08;18.85;;;17.05;;
7166;SDS011;3625;51.762;14.320;2022-08-19T11:10:49;21.08;;;19.15;;
7166;SDS011;3625;51.762;14.320;2022-08-19T11:13:24;22.15;;;20.05;;
7166;SDS011;3625;51.762;14.320;2022-08-19T11:15:59;18.60;;;17.00;;
7166;SDS011;3625;51.762;14.320;2022-08-19T11:18:34;19.05;;;17.45;;
7166;SDS011;3625;51.762;14.320;2022-08-19T11:21:08;20.38;;;18.48;;
7166;SDS011;3625;51.762;14.320;2022-08-19T11:23:43;19.52;;;17.88;;
7166;SDS011;3625;51.762;14.320;2022-08-19T11:26:14;19.05;;;17.23;;
7166;SDS011;3625;51.762;14.320;2022-08-19T11:28:44;21.88;;;19.77;;
7166;SDS011;3625;51.762;14.320;2022-08-19T11:31:16;18.17;;;16.48;;
7166;SDS011;3625;51.762;14.320;2022-08-19T11:33:50;18.85;;;17.15;;
7166;SDS011;3625;51.762;14.320;2022-08-19T11:36:21;21.10;;;19.20;;
7166;SDS011;3625;51.762;14.320;2022-08-19T11:38:50;19.40;;;17.70;;
7166;SDS011;3625;51.762;14.320;2022-08-19T11:41:20;18.95;;;17.33;;
7166;SDS011;3625;51.762;14.320;2022-08-19T11:43:51;18.45;;;16.75;;
7166;SDS011;3625;51.762;14.320;2022-08-19T11:46:23;19.67;;;17.88;;
7166;SDS011;3625;51.762;14.320;2022-08-19T11:48:55;18.90;;;17.20;;
7166;SDS011;3625;51.762;14.320;2022-08-19T11:51:25;18.08;;;16.52;;
7166;SDS011;3625;51.762;14.320;2022-08-19T11:53:56;19.20;;;17.50;;
7166;SDS011;3625;51.762;14.320;2022-08-19T11:56:27;18.60;;;17.02;;
7166;SDS011;3625;51.762;14.320;2022-08-19T11:58:56;18.50;;;16.92;;
7166;SDS011;3625;51.762;14.320;2022-08-19T12:01:26;17.95;;;16.42;;
7166;SDS011;3625;51.762;14.320;2022-08-19T12:03:56;18.58;;;16.88;;
7166;SDS011;3625;51.762;14.320;2022-08-19T12:06:27;19.00;;;17.33;;
7166;SDS011;3625;51.762;14.320;2022-08-19T12:09:02;18.83;;;17.23;;
7166;SDS011;3625;51.762;14.320;2022-08-19T12:11:33;19.45;;;17.92;;
7166;SDS011;3625;51.762;14.320;2022-08-19T12:14:03;20.55;;;18.85;;
7166;SDS011;3625;51.762;14.320;2022-08-19T12:16:33;17.83;;;16.30;;
7166;SDS011;3625;51.762;14.320;2022-08-19T12:19:14;16.20;;;14.90;;
7166;SDS011;3625;51.762;14.320;2022-08-19T12:21:48;19.88;;;18.08;;
7166;SDS011;3625;51.762;14.320;2022-08-19T12:24:17;21.83;;;19.60;;
7166;SDS011;3625;51.762;14.320;2022-08-19T12:26:49;21.30;;;19.20;;
7166;SDS011;3625;51.762;14.320;2022-08-19T12:29:20;20.50;;;18.70;;
7166;SDS011;3625;51.762;14.320;2022-08-19T12:31:58;19.13;;;17.33;;
7166;SDS011;3625;51.762;14.320;2022-08-19T12:34:29;23.08;;;20.92;;
7166;SDS011;3625;51.762;14.320;2022-08-19T12:37:01;20.90;;;19.15;;
7166;SDS011;3625;51.762;14.320;2022-08-19T12:39:36;19.77;;;17.88;;
7166;SDS011;3625;51.762;14.320;2022-08-19T12:42:08;20.67;;;18.67;;
7166;SDS011;3625;51.762;14.320;2022-08-19T12:44:38;19.85;;;17.88;;
7166;SDS011;3625;51.762;14.320;2022-08-19T12:47:12;21.90;;;19.92;;
7166;SDS011;3625;51.762;14.320;2022-08-19T12:49:45;23.55;;;21.45;;
7166;SDS011;3625;51.762;14.320;2022-08-19T12:52:21;18.25;;;16.65;;
7166;SDS011;3625;51.762;14.320;2022-08-19T12:54:51;18.88;;;17.15;;
7166;SDS011;3625;51.762;14.320;2022-08-19T12:57:28;18.52;;;16.80;;
7166;SDS011;3625;51.762;14.320;2022-08-19T13:00:00;19.98;;;17.88;;
7166;SDS011;3625;51.762;14.320;2022-08-19T13:02:37;19.85;;;17.65;;
7166;SDS011;3625;51.762;14.320;2022-08-19T13:05:08;20.50;;;18.70;;
7166;SDS011;3625;51.762;14.320;2022-08-19T13:07:39;19.63;;;17.90;;
7166;SDS011;3625;51.762;14.320;2022-08-19T13:10:12;19.83;;;17.98;;
7166;SDS011;3625;51.762;14.320;2022-08-19T13:12:44;17.23;;;15.80;;
7166;SDS011;3625;51.762;14.320;2022-08-19T13:15:16;22.30;;;20.23;;
7166;SDS011;3625;51.762;14.320;2022-08-19T13:17:51;21.85;;;19.88;;
7166;SDS011;3625;51.762;14.320;2022-08-19T13:20:23;22.02;;;20.02;;
7166;SDS011;3625;51.762;14.320;2022-08-19T13:22:53;22.92;;;20.90;;
7166;SDS011;3625;51.762;14.320;2022-08-19T13:25:23;22.15;;;20.15;;
7166;SDS011;3625;51.762;14.320;2022-08-19T13:27:53;25.63;;;22.98;;
7166;SDS011;3625;51.762;14.320;2022-08-19T13:30:22;22.83;;;20.80;;
7166;SDS011;3625;51.762;14.320;2022-08-19T13:33:10;22.20;;;20.15;;
7166;SDS011;3625;51.762;14.320;2022-08-19T13:35:44;22.92;;;20.60;;
7166;SDS011;3625;51.762;14.320;2022-08-19T13:38:19;21.33;;;19.30;;
7166;SDS011;3625;51.762;14.320;2022-08-19T13:40:50;24.23;;;22.13;;
7166;SDS011;3625;51.762;14.320;2022-08-19T13:43:22;18.38;;;16.67;;
7166;SDS011;3625;51.762;14.320;2022-08-19T13:45:54;24.60;;;22.27;;
7166;SDS011;3625;51.762;14.320;2022-08-19T13:48:25;22.38;;;20.35;;
7166;SDS011;3625;51.762;14.320;2022-08-19T13:50:54;24.10;;;21.60;;
7166;SDS011;3625;51.762;14.320;2022-08-19T13:53:44;23.23;;;21.13;;
7166;SDS011;3625;51.762;14.320;2022-08-19T13:56:14;25.30;;;22.90;;
7166;SDS011;3625;51.762;14.320;2022-08-19T13:58:51;24.67;;;22.38;;
7166;SDS011;3625;51.762;14.320;2022-08-19T14:01:25;21.75;;;19.60;;
7166;SDS011;3625;51.762;14.320;2022-08-19T14:03:56;24.90;;;22.23;;
7166;SDS011;3625;51.762;14.320;2022-08-19T14:06:25;24.90;;;22.42;;
7166;SDS011;3625;51.762;14.320;2022-08-19T14:08:55;22.30;;;20.15;;
7166;SDS011;3625;51.762;14.320;2022-08-19T14:11:24;25.60;;;23.10;;
7166;SDS011;3625;51.762;14.320;2022-08-19T14:13:53;28.23;;;25.40;;
7166;SDS011;3625;51.762;14.320;2022-08-19T14:16:25;24.67;;;22.17;;
7166;SDS011;3625;51.762;14.320;2022-08-19T14:19:02;22.73;;;20.35;;
7166;SDS011;3625;51.762;14.320;2022-08-19T14:21:41;24.40;;;21.80;;
7166;SDS011;3625;51.762;14.320;2022-08-19T14:24:31;25.30;;;22.70;;
7166;SDS011;3625;51.762;14.320;2022-08-19T14:27:01;25.70;;;23.02;;
7166;SDS011;3625;51.762;14.320;2022-08-19T14:29:30;25.60;;;22.88;;
7166;SDS011;3625;51.762;14.320;2022-08-19T14:31:59;27.23;;;24.05;;
7166;SDS011;3625;51.762;14.320;2022-08-19T14:34:30;28.77;;;25.83;;
7166;SDS011;3625;51.762;14.320;2022-08-19T14:37:00;26.27;;;23.30;;
7166;SDS011;3625;51.762;14.320;2022-08-19T14:39:29;24.50;;;21.63;;
7166;SDS011;3625;51.762;14.320;2022-08-19T14:41:58;27.23;;;22.80;;
7166;SDS011;3625;51.762;14.320;2022-08-19T14:44:27;28.27;;;24.23;;
7166;SDS011;3625;51.762;14.320;2022-08-19T14:47:00;26.05;;;23.23;;
7166;SDS011;3625;51.762;14.320;2022-08-19T14:49:31;29.27;;;25.70;;
7166;SDS011;3625;51.762;14.320;2022-08-19T14:52:07;27.10;;;23.95;;
7166;SDS011;3625;51.762;14.320;2022-08-19T14:54:36;26.95;;;22.63;;
7166;SDS011;3625;51.762;14.320;2022-08-19T14:57:07;27.15;;;24.20;;
7166;SDS011;3625;51.762;14.320;2022-08-19T14:59:41;26.23;;;22.45;;
7166;SDS011;3625;51.762;14.320;2022-08-19T15:02:10;25.95;;;21.38;;
7166;SDS011;3625;51.762;14.320;2022-08-19T15:05:01;25.48;;;21.52;;
7166;SDS011;3625;51.762;14.320;2022-08-19T15:07:30;26.23;;;21.30;;
7166;SDS011;3625;51.762;14.320;2022-08-19T15:09:59;24.92;;;21.38;;
7166;SDS011;3625;51.762;14.320;2022-08-19T15:12:28;24.55;;;19.85;;